sensor_id;sensor_type;location;lat;lon;timestamp;P1;durP1;ratioP1;P2;durP2;ratioP2
8694;SDS011;65580;49.446;6.854;2023-04-01T00:03:58;4.68;;;1.10;;
8694;SDS011;65580;49.446;6.854;2023-04-01T00:08:05;8.05;;;1.23;;
8694;SDS011;65580;49.446;6.854;2023-04-01T00:12:08;10.73;;;0.98;;
8694;SDS011;65580;49.446;6.854;2023-04-01T00:16:11;9.77;;;1.42;;
8694;SDS011;65580;49.446;6.854;2023-04-01T00:20:22;8.00;;;1.20;;
8694;SDS011;65580;49.446;6.854;2023-04-01T00:24:27;10.10;;;1.20;;
8694;SDS011;65580;49.446;6.854;2023-04-01T00:28:30;5.53;;;1.00;;
8694;SDS011;65580;49.446;6.854;2023-04-01T00:32:33;7.55;;;1.30;;
8694;SDS011;65580;49.446;6.854;2023-04-01T00:36:36;6.95;;;1.00;;
8694;SDS011;65580;49.446;6.854;2023-04-01T00:40:41;7.85;;;1.60;;
8694;SDS011;65580;49.446;6.854;2023-04-01T00:44:47;8.18;;;1.60;;
8694;SDS011;65580;49.446;6.854;2023-04-01T00:48:53;14.40;;;1.25;;
8694;SDS011;65580;49.446;6.854;2023-04-01T00:52:57;4.70;;;1.38;;
8694;SDS011;65580;49.446;6.854;2023-04-01T00:57:03;6.95;;;1.00;;
8694;SDS011;65580;49.446;6.854;2023-04-01T01:01:08;6.78;;;0.98;;
8694;SDS011;65580;49.446;6.854;2023-04-01T01:05:12;5.05;;;1.02;;
8694;SDS011;65580;49.446;6.854;2023-04-01T01:13:29;6.97;;;1.17;;
8694;SDS011;65580;49.446;6.854;2023-04-01T01:17:37;4.18;;;1.10;;
8694;SDS011;65580;49.446;6.854;2023-04-01T01:21:49;5.78;;;0.93;;
8694;SDS011;65580;49.446;6.854;2023-04-01T01:26:04;6.97;;;0.90;;
8694;SDS011;65580;49.446;6.854;2023-04-01T01:30:32;7.03;;;1.15;;
8694;SDS011;65580;49.446;6.854;2023-04-01T01:34:40;6.80;;;1.20;;
8694;SDS011;65580;49.446;6.854;2023-04-01T01:38:48;6.80;;;1.27;;
8694;SDS011;65580;49.446;6.854;2023-04-01T01:42:53;9.05;;;1.52;;
8694;SDS011;65580;49.446;6.854;2023-04-01T01:46:58;5.45;;;0.95;;
8694;SDS011;65580;49.446;6.854;2023-04-01T01:51:02;5.47;;;1.40;;
8694;SDS011;65580;49.446;6.854;2023-04-01T01:59:30;6.40;;;1.10;;
8694;SDS011;65580;49.446;6.854;2023-04-01T02:03:35;7.78;;;1.60;;
8694;SDS011;65580;49.446;6.854;2023-04-01T02:07:39;3.53;;;0.70;;
8694;SDS011;65580;49.446;6.854;2023-04-01T02:11:47;6.05;;;1.23;;
8694;SDS011;65580;49.446;6.854;2023-04-01T02:15:52;7.38;;;1.35;;
8694;SDS011;65580;49.446;6.854;2023-04-01T02:19:59;6.32;;;1.45;;
8694;SDS011;65580;49.446;6.854;2023-04-01T02:24:06;11.35;;;1.23;;
8694;SDS011;65580;49.446;6.854;2023-04-01T02:28:13;9.23;;;1.20;;
8694;SDS011;65580;49.446;6.854;2023-04-01T02:32:18;3.40;;;0.85;;
8694;SDS011;65580;49.446;6.854;2023-04-01T02:36:22;9.52;;;1.20;;
8694;SDS011;65580;49.446;6.854;2023-04-01T02:40:25;6.30;;;1.10;;
8694;SDS011;65580;49.446;6.854;2023-04-01T02:44:29;6.63;;;1.27;;
8694;SDS011;65580;49.446;6.854;2023-04-01T02:48:32;6.60;;;1.10;;
8694;SDS011;65580;49.446;6.854;2023-04-01T02:52:35;7.47;;;1.33;;
8694;SDS011;65580;49.446;6.854;2023-04-01T02:56:38;4.70;;;1.00;;
8694;SDS011;65580;49.446;6.854;2023-04-01T03:00:42;6.00;;;0.82;;
8694;SDS011;65580;49.446;6.854;2023-04-01T03:04:45;7.68;;;1.30;;
8694;SDS011;65580;49.446;6.854;2023-04-01T03:08:48;5.72;;;1.13;;
8694;SDS011;65580;49.446;6.854;2023-04-01T03:12:50;7.95;;;1.10;;
8694;SDS011;65580;49.446;6.854;2023-04-01T03:16:55;6.00;;;1.30;;
8694;SDS011;65580;49.446;6.854;2023-04-01T03:21:11;3.60;;;0.98;;
8694;SDS011;65580;49.446;6.854;2023-04-01T03:25:15;4.57;;;0.80;;
8694;SDS011;65580;49.446;6.854;2023-04-01T03:29:18;8.45;;;1.40;;
8694;SDS011;65580;49.446;6.854;2023-04-01T03:33:22;4.65;;;1.00;;
8694;SDS011;65580;49.446;6.854;2023-04-01T03:37:25;9.77;;;1.30;;
8694;SDS011;65580;49.446;6.854;2023-04-01T03:41:28;7.32;;;0.90;;
8694;SDS011;65580;49.446;6.854;2023-04-01T03:45:32;6.70;;;1.02;;
8694;SDS011;65580;49.446;6.854;2023-04-01T03:49:36;4.32;;;1.02;;
8694;SDS011;65580;49.446;6.854;2023-04-01T03:53:39;6.50;;;1.02;;
8694;SDS011;65580;49.446;6.854;2023-04-01T03:57:42;6.05;;;0.80;;
8694;SDS011;65580;49.446;6.854;2023-04-01T04:01:46;5.90;;;0.90;;
8694;SDS011;65580;49.446;6.854;2023-04-01T04:05:51;6.88;;;0.85;;
8694;SDS011;65580;49.446;6.854;2023-04-01T04:09:54;3.90;;;0.85;;
8694;SDS011;65580;49.446;6.854;2023-04-01T04:13:57;5.25;;;1.25;;
8694;SDS011;65580;49.446;6.854;2023-04-01T04:17:59;1.90;;;0.88;;
8694;SDS011;65580;49.446;6.854;2023-04-01T04:22:04;5.28;;;0.60;;
8694;SDS011;65580;49.446;6.854;2023-04-01T04:26:07;5.43;;;0.85;;
8694;SDS011;65580;49.446;6.854;2023-04-01T04:30:11;4.47;;;1.08;;
8694;SDS011;65580;49.446;6.854;2023-04-01T04:34:14;4.13;;;0.93;;
8694;SDS011;65580;49.446;6.854;2023-04-01T04:38:19;3.78;;;0.93;;
8694;SDS011;65580;49.446;6.854;2023-04-01T04:42:21;2.63;;;0.60;;
8694;SDS011;65580;49.446;6.854;2023-04-01T04:46:24;6.45;;;0.90;;
8694;SDS011;65580;49.446;6.854;2023-04-01T04:50:27;3.20;;;0.60;;
8694;SDS011;65580;49.446;6.854;2023-04-01T04:54:32;7.60;;;0.95;;
8694;SDS011;65580;49.446;6.854;2023-04-01T04:58:35;5.15;;;0.75;;
8694;SDS011;65580;49.446;6.854;2023-04-01T05:02:37;4.03;;;0.65;;
8694;SDS011;65580;49.446;6.854;2023-04-01T05:06:42;13.32;;;4.05;;
8694;SDS011;65580;49.446;6.854;2023-04-01T05:10:46;7.57;;;2.88;;
8694;SDS011;65580;49.446;6.854;2023-04-01T05:14:49;2.65;;;0.80;;
8694;SDS011;65580;49.446;6.854;2023-04-01T05:18:52;3.78;;;0.80;;
8694;SDS011;65580;49.446;6.854;2023-04-01T05:22:55;4.13;;;0.75;;
8694;SDS011;65580;49.446;6.854;2023-04-01T05:26:59;5.18;;;0.93;;
8694;SDS011;65580;49.446;6.854;2023-04-01T05:31:02;1.83;;;0.45;;
8694;SDS011;65580;49.446;6.854;2023-04-01T05:35:06;4.53;;;0.85;;
8694;SDS011;65580;49.446;6.854;2023-04-01T05:39:09;4.65;;;0.82;;
8694;SDS011;65580;49.446;6.854;2023-04-01T05:43:13;4.22;;;0.93;;
8694;SDS011;65580;49.446;6.854;2023-04-01T05:47:16;3.13;;;1.00;;
8694;SDS011;65580;49.446;6.854;2023-04-01T05:51:19;6.50;;;1.13;;
8694;SDS011;65580;49.446;6.854;2023-04-01T05:55:22;2.92;;;1.00;;
8694;SDS011;65580;49.446;6.854;2023-04-01T05:59:26;4.40;;;1.27;;
8694;SDS011;65580;49.446;6.854;2023-04-01T06:03:29;3.25;;;0.73;;
8694;SDS011;65580;49.446;6.854;2023-04-01T06:07:32;2.17;;;0.70;;
8694;SDS011;65580;49.446;6.854;2023-04-01T06:11:37;5.20;;;1.00;;
8694;SDS011;65580;49.446;6.854;2023-04-01T06:15:50;1.52;;;0.68;;
8694;SDS011;65580;49.446;6.854;2023-04-01T06:19:57;2.80;;;0.80;;
8694;SDS011;65580;49.446;6.854;2023-04-01T06:24:16;4.22;;;0.90;;
8694;SDS011;65580;49.446;6.854;2023-04-01T06:28:32;2.28;;;0.88;;
8694;SDS011;65580;49.446;6.854;2023-04-01T06:32:50;2.42;;;0.88;;
8694;SDS011;65580;49.446;6.854;2023-04-01T06:37:03;2.88;;;0.60;;
8694;SDS011;65580;49.446;6.854;2023-04-01T06:46:15;2.83;;;0.60;;
8694;SDS011;65580;49.446;6.854;2023-04-01T06:50:25;1.90;;;0.47;;
8694;SDS011;65580;49.446;6.854;2023-04-01T06:54:32;1.15;;;0.38;;
8694;SDS011;65580;49.446;6.854;2023-04-01T06:58:37;0.70;;;0.60;;
8694;SDS011;65580;49.446;6.854;2023-04-01T07:02:43;1.27;;;0.68;;
8694;SDS011;65580;49.446;6.854;2023-04-01T07:06:50;3.90;;;0.60;;
8694;SDS011;65580;49.446;6.854;2023-04-01T07:10:56;1.58;;;0.30;;
8694;SDS011;65580;49.446;6.854;2023-04-01T07:15:01;1.30;;;0.50;;
8694;SDS011;65580;49.446;6.854;2023-04-01T07:19:08;1.02;;;0.43;;
8694;SDS011;65580;49.446;6.854;2023-04-01T07:23:16;2.00;;;0.20;;
8694;SDS011;65580;49.446;6.854;2023-04-01T07:27:24;2.53;;;0.80;;
8694;SDS011;65580;49.446;6.854;2023-04-01T07:31:30;2.45;;;0.70;;
8694;SDS011;65580;49.446;6.854;2023-04-01T07:35:53;1.13;;;0.68;;
8694;SDS011;65580;49.446;6.854;2023-04-01T07:40:02;1.10;;;0.50;;
8694;SDS011;65580;49.446;6.854;2023-04-01T07:44:13;2.42;;;0.65;;
8694;SDS011;65580;49.446;6.854;2023-04-01T07:48:21;1.50;;;0.45;;
8694;SDS011;65580;49.446;6.854;2023-04-01T07:52:29;1.08;;;0.80;;
8694;SDS011;65580;49.446;6.854;2023-04-01T07:56:39;1.15;;;0.50;;
8694;SDS011;65580;49.446;6.854;2023-04-01T08:00:48;1.42;;;0.77;;
8694;SDS011;65580;49.446;6.854;2023-04-01T08:04:56;1.08;;;0.90;;
8694;SDS011;65580;49.446;6.854;2023-04-01T08:09:04;2.35;;;0.80;;
8694;SDS011;65580;49.446;6.854;2023-04-01T08:13:14;1.33;;;0.63;;
8694;SDS011;65580;49.446;6.854;2023-04-01T08:17:24;0.55;;;0.55;;
8694;SDS011;65580;49.446;6.854;2023-04-01T08:21:32;7.32;;;4.25;;
8694;SDS011;65580;49.446;6.854;2023-04-01T08:25:37;1.98;;;1.30;;
8694;SDS011;65580;49.446;6.854;2023-04-01T08:29:49;1.05;;;0.80;;
8694;SDS011;65580;49.446;6.854;2023-04-01T08:33:53;1.00;;;0.50;;
8694;SDS011;65580;49.446;6.854;2023-04-01T08:37:58;0.75;;;0.75;;
8694;SDS011;65580;49.446;6.854;2023-04-01T08:46:32;0.50;;;0.50;;
8694;SDS011;65580;49.446;6.854;2023-04-01T08:51:03;2.47;;;0.70;;
8694;SDS011;65580;49.446;6.854;2023-04-01T08:59:48;1.13;;;0.60;;
8694;SDS011;65580;49.446;6.854;2023-04-01T09:04:17;1.27;;;0.65;;
8694;SDS011;65580;49.446;6.854;2023-04-01T09:08:31;0.70;;;0.60;;
8694;SDS011;65580;49.446;6.854;2023-04-01T09:12:45;3.55;;;1.80;;
8694;SDS011;65580;49.446;6.854;2023-04-01T09:17:08;2.35;;;0.73;;
8694;SDS011;65580;49.446;6.854;2023-04-01T09:21:25;0.60;;;0.52;;
8694;SDS011;65580;49.446;6.854;2023-04-01T09:38:58;1.52;;;0.50;;
8694;SDS011;65580;49.446;6.854;2023-04-01T09:43:15;2.45;;;1.10;;
8694;SDS011;65580;49.446;6.854;2023-04-01T09:47:28;0.88;;;0.40;;
8694;SDS011;65580;49.446;6.854;2023-04-01T09:51:44;0.68;;;0.47;;
8694;SDS011;65580;49.446;6.854;2023-04-01T09:56:21;0.60;;;0.40;;
8694;SDS011;65580;49.446;6.854;2023-04-01T10:00:52;1.38;;;0.50;;
8694;SDS011;65580;49.446;6.854;2023-04-01T10:05:16;1.80;;;0.45;;
8694;SDS011;65580;49.446;6.854;2023-04-01T10:14:46;0.90;;;0.55;;
8694;SDS011;65580;49.446;6.854;2023-04-01T10:19:20;0.93;;;0.50;;
8694;SDS011;65580;49.446;6.854;2023-04-01T10:23:45;1.52;;;0.55;;
8694;SDS011;65580;49.446;6.854;2023-04-01T10:32:39;0.95;;;0.30;;
8694;SDS011;65580;49.446;6.854;2023-04-01T10:37:28;0.40;;;0.40;;
8694;SDS011;65580;49.446;6.854;2023-04-01T10:41:53;0.28;;;0.28;;
8694;SDS011;65580;49.446;6.854;2023-04-01T10:46:32;0.63;;;0.40;;
8694;SDS011;65580;49.446;6.854;2023-04-01T10:51:11;2.20;;;0.50;;
8694;SDS011;65580;49.446;6.854;2023-04-01T10:55:36;0.55;;;0.55;;
8694;SDS011;65580;49.446;6.854;2023-04-01T11:28:08;0.30;;;0.30;;
8694;SDS011;65580;49.446;6.854;2023-04-01T11:32:29;3.95;;;0.60;;
8694;SDS011;65580;49.446;6.854;2023-04-01T11:36:50;4.50;;;2.10;;
8694;SDS011;65580;49.446;6.854;2023-04-01T11:41:02;3.67;;;1.70;;
8694;SDS011;65580;49.446;6.854;2023-04-01T11:45:21;7.07;;;2.83;;
8694;SDS011;65580;49.446;6.854;2023-04-01T11:49:33;1.30;;;1.00;;
8694;SDS011;65580;49.446;6.854;2023-04-01T11:53:44;4.60;;;1.75;;
8694;SDS011;65580;49.446;6.854;2023-04-01T11:57:51;1.65;;;1.10;;
8694;SDS011;65580;49.446;6.854;2023-04-01T12:02:10;1.70;;;0.80;;
8694;SDS011;65580;49.446;6.854;2023-04-01T12:06:16;4.47;;;1.80;;
8694;SDS011;65580;49.446;6.854;2023-04-01T12:10:24;1.23;;;0.90;;
8694;SDS011;65580;49.446;6.854;2023-04-01T12:14:31;1.20;;;0.70;;
8694;SDS011;65580;49.446;6.854;2023-04-01T12:18:40;3.15;;;0.75;;
8694;SDS011;65580;49.446;6.854;2023-04-01T12:22:46;1.27;;;0.60;;
8694;SDS011;65580;49.446;6.854;2023-04-01T12:26:55;2.58;;;1.10;;
8694;SDS011;65580;49.446;6.854;2023-04-01T12:31:07;0.98;;;0.80;;
8694;SDS011;65580;49.446;6.854;2023-04-01T12:35:23;1.55;;;0.50;;
8694;SDS011;65580;49.446;6.854;2023-04-01T12:39:34;2.58;;;0.85;;
8694;SDS011;65580;49.446;6.854;2023-04-01T12:43:49;1.05;;;0.60;;
8694;SDS011;65580;49.446;6.854;2023-04-01T12:48:06;2.55;;;0.88;;
8694;SDS011;65580;49.446;6.854;2023-04-01T12:52:37;1.20;;;0.80;;
8694;SDS011;65580;49.446;6.854;2023-04-01T12:56:47;2.55;;;0.90;;
8694;SDS011;65580;49.446;6.854;2023-04-01T13:01:00;1.50;;;0.88;;
8694;SDS011;65580;49.446;6.854;2023-04-01T13:05:18;2.00;;;0.90;;
8694;SDS011;65580;49.446;6.854;2023-04-01T13:09:30;3.00;;;1.00;;
8694;SDS011;65580;49.446;6.854;2023-04-01T13:13:48;1.98;;;0.70;;
8694;SDS011;65580;49.446;6.854;2023-04-01T13:18:01;1.38;;;0.80;;
8694;SDS011;65580;49.446;6.854;2023-04-01T13:22:14;2.78;;;0.70;;
8694;SDS011;65580;49.446;6.854;2023-04-01T13:26:22;1.27;;;0.60;;
8694;SDS011;65580;49.446;6.854;2023-04-01T13:30:32;1.48;;;0.80;;
8694;SDS011;65580;49.446;6.854;2023-04-01T13:34:39;2.65;;;0.82;;
8694;SDS011;65580;49.446;6.854;2023-04-01T13:38:58;3.60;;;0.77;;
8694;SDS011;65580;49.446;6.854;2023-04-01T13:43:12;3.67;;;0.90;;
8694;SDS011;65580;49.446;6.854;2023-04-01T13:47:24;1.35;;;0.82;;
8694;SDS011;65580;49.446;6.854;2023-04-01T13:55:53;2.22;;;0.65;;
8694;SDS011;65580;49.446;6.854;2023-04-01T14:05:00;1.75;;;0.60;;
8694;SDS011;65580;49.446;6.854;2023-04-01T14:09:25;3.33;;;0.93;;
8694;SDS011;65580;49.446;6.854;2023-04-01T14:13:41;1.55;;;0.70;;
8694;SDS011;65580;49.446;6.854;2023-04-01T14:17:59;1.45;;;0.80;;
8694;SDS011;65580;49.446;6.854;2023-04-01T14:22:11;3.92;;;1.17;;
8694;SDS011;65580;49.446;6.854;2023-04-01T14:26:20;1.85;;;0.88;;
8694;SDS011;65580;49.446;6.854;2023-04-01T14:30:48;1.50;;;0.77;;
8694;SDS011;65580;49.446;6.854;2023-04-01T14:35:05;1.58;;;0.85;;
8694;SDS011;65580;49.446;6.854;2023-04-01T14:39:24;2.72;;;0.80;;
8694;SDS011;65580;49.446;6.854;2023-04-01T14:48:28;2.40;;;0.82;;
8694;SDS011;65580;49.446;6.854;2023-04-01T14:52:34;1.60;;;0.50;;
8694;SDS011;65580;49.446;6.854;2023-04-01T14:56:41;1.15;;;0.50;;
8694;SDS011;65580;49.446;6.854;2023-04-01T15:00:48;3.03;;;0.52;;
8694;SDS011;65580;49.446;6.854;2023-04-01T15:04:56;1.63;;;0.57;;
8694;SDS011;65580;49.446;6.854;2023-04-01T15:09:02;1.08;;;0.82;;
8694;SDS011;65580;49.446;6.854;2023-04-01T15:13:12;8.30;;;2.53;;
8694;SDS011;65580;49.446;6.854;2023-04-01T15:17:29;1.05;;;0.70;;
8694;SDS011;65580;49.446;6.854;2023-04-01T15:21:44;1.40;;;0.70;;
8694;SDS011;65580;49.446;6.854;2023-04-01T15:26:07;4.18;;;0.80;;
8694;SDS011;65580;49.446;6.854;2023-04-01T15:30:27;6.07;;;1.02;;
8694;SDS011;65580;49.446;6.854;2023-04-01T15:34:35;1.48;;;0.63;;
8694;SDS011;65580;49.446;6.854;2023-04-01T15:38:40;4.25;;;1.77;;
8694;SDS011;65580;49.446;6.854;2023-04-01T15:42:53;1.92;;;0.50;;
8694;SDS011;65580;49.446;6.854;2023-04-01T15:47:04;2.33;;;0.60;;
8694;SDS011;65580;49.446;6.854;2023-04-01T15:51:15;2.28;;;1.10;;
8694;SDS011;65580;49.446;6.854;2023-04-01T15:55:24;1.02;;;0.47;;
8694;SDS011;65580;49.446;6.854;2023-04-01T15:59:37;1.30;;;0.73;;
8694;SDS011;65580;49.446;6.854;2023-04-01T16:03:52;3.90;;;1.65;;
8694;SDS011;65580;49.446;6.854;2023-04-01T16:08:02;3.28;;;0.88;;
8694;SDS011;65580;49.446;6.854;2023-04-01T16:12:29;3.28;;;0.82;;
8694;SDS011;65580;49.446;6.854;2023-04-01T16:16:43;1.10;;;0.68;;
8694;SDS011;65580;49.446;6.854;2023-04-01T16:20:55;2.15;;;0.80;;
8694;SDS011;65580;49.446;6.854;2023-04-01T16:25:07;2.20;;;0.82;;
8694;SDS011;65580;49.446;6.854;2023-04-01T16:29:22;0.40;;;0.40;;
8694;SDS011;65580;49.446;6.854;2023-04-01T16:33:32;0.63;;;0.63;;
8694;SDS011;65580;49.446;6.854;2023-04-01T16:37:43;1.08;;;0.90;;
8694;SDS011;65580;49.446;6.854;2023-04-01T16:41:49;0.90;;;0.60;;
8694;SDS011;65580;49.446;6.854;2023-04-01T16:50:13;0.43;;;0.35;;
8694;SDS011;65580;49.446;6.854;2023-04-01T16:54:27;1.30;;;1.00;;
8694;SDS011;65580;49.446;6.854;2023-04-01T16:58:33;2.67;;;1.10;;
8694;SDS011;65580;49.446;6.854;2023-04-01T17:02:37;1.98;;;1.23;;
8694;SDS011;65580;49.446;6.854;2023-04-01T17:06:43;2.80;;;1.02;;
8694;SDS011;65580;49.446;6.854;2023-04-01T17:10:49;3.80;;;1.40;;
8694;SDS011;65580;49.446;6.854;2023-04-01T17:14:56;0.70;;;0.70;;
8694;SDS011;65580;49.446;6.854;2023-04-01T17:19:05;1.52;;;0.75;;
8694;SDS011;65580;49.446;6.854;2023-04-01T17:23:14;0.80;;;0.80;;
8694;SDS011;65580;49.446;6.854;2023-04-01T17:27:27;4.03;;;0.70;;
8694;SDS011;65580;49.446;6.854;2023-04-01T17:31:45;5.25;;;1.80;;
8694;SDS011;65580;49.446;6.854;2023-04-01T17:35:50;2.58;;;1.40;;
8694;SDS011;65580;49.446;6.854;2023-04-01T17:40:00;3.05;;;1.90;;
8694;SDS011;65580;49.446;6.854;2023-04-01T17:44:19;2.08;;;1.20;;
8694;SDS011;65580;49.446;6.854;2023-04-01T17:48:32;2.13;;;1.30;;
8694;SDS011;65580;49.446;6.854;2023-04-01T17:52:43;3.70;;;1.40;;
8694;SDS011;65580;49.446;6.854;2023-04-01T17:56:52;5.93;;;2.47;;
8694;SDS011;65580;49.446;6.854;2023-04-01T18:01:05;1.75;;;0.80;;
8694;SDS011;65580;49.446;6.854;2023-04-01T18:05:18;2.58;;;1.02;;
8694;SDS011;65580;49.446;6.854;2023-04-01T18:09:31;2.25;;;1.33;;
8694;SDS011;65580;49.446;6.854;2023-04-01T18:18:07;1.98;;;0.93;;
8694;SDS011;65580;49.446;6.854;2023-04-01T18:22:15;1.30;;;0.90;;
8694;SDS011;65580;49.446;6.854;2023-04-01T18:26:21;1.98;;;0.80;;
8694;SDS011;65580;49.446;6.854;2023-04-01T18:30:26;1.38;;;1.00;;
8694;SDS011;65580;49.446;6.854;2023-04-01T18:34:36;3.95;;;1.40;;
8694;SDS011;65580;49.446;6.854;2023-04-01T18:38:45;4.68;;;1.02;;
8694;SDS011;65580;49.446;6.854;2023-04-01T18:42:53;1.75;;;1.20;;
8694;SDS011;65580;49.446;6.854;2023-04-01T18:47:05;1.30;;;1.13;;
8694;SDS011;65580;49.446;6.854;2023-04-01T18:51:16;1.60;;;0.88;;
8694;SDS011;65580;49.446;6.854;2023-04-01T18:55:30;3.80;;;1.33;;
8694;SDS011;65580;49.446;6.854;2023-04-01T18:59:37;3.28;;;1.38;;
8694;SDS011;65580;49.446;6.854;2023-04-01T19:03:43;1.08;;;0.95;;
8694;SDS011;65580;49.446;6.854;2023-04-01T19:07:52;3.28;;;1.08;;
8694;SDS011;65580;49.446;6.854;2023-04-01T19:16:21;2.85;;;1.20;;
8694;SDS011;65580;49.446;6.854;2023-04-01T19:20:29;3.03;;;1.30;;
8694;SDS011;65580;49.446;6.854;2023-04-01T19:24:43;3.72;;;1.20;;
8694;SDS011;65580;49.446;6.854;2023-04-01T19:28:58;0.82;;;0.80;;
8694;SDS011;65580;49.446;6.854;2023-04-01T19:33:07;2.35;;;0.77;;
8694;SDS011;65580;49.446;6.854;2023-04-01T19:37:21;3.60;;;1.02;;
8694;SDS011;65580;49.446;6.854;2023-04-01T19:41:35;4.45;;;1.30;;
8694;SDS011;65580;49.446;6.854;2023-04-01T19:45:43;1.38;;;0.95;;
8694;SDS011;65580;49.446;6.854;2023-04-01T19:49:50;4.38;;;1.42;;
8694;SDS011;65580;49.446;6.854;2023-04-01T19:53:57;1.27;;;1.17;;
8694;SDS011;65580;49.446;6.854;2023-04-01T19:58:05;2.15;;;1.23;;
8694;SDS011;65580;49.446;6.854;2023-04-01T20:02:26;2.72;;;1.20;;
8694;SDS011;65580;49.446;6.854;2023-04-01T20:06:37;4.10;;;1.42;;
8694;SDS011;65580;49.446;6.854;2023-04-01T20:14:53;2.50;;;1.65;;
8694;SDS011;65580;49.446;6.854;2023-04-01T20:18:58;3.33;;;1.88;;
8694;SDS011;65580;49.446;6.854;2023-04-01T20:23:05;3.63;;;1.52;;
8694;SDS011;65580;49.446;6.854;2023-04-01T20:27:14;5.53;;;1.38;;
8694;SDS011;65580;49.446;6.854;2023-04-01T20:31:27;6.85;;;1.52;;
8694;SDS011;65580;49.446;6.854;2023-04-01T20:35:39;3.80;;;1.70;;
8694;SDS011;65580;49.446;6.854;2023-04-01T20:40:03;4.80;;;1.88;;
8694;SDS011;65580;49.446;6.854;2023-04-01T20:44:19;7.25;;;2.20;;
8694;SDS011;65580;49.446;6.854;2023-04-01T20:48:29;7.55;;;1.83;;
8694;SDS011;65580;49.446;6.854;2023-04-01T20:52:39;3.30;;;1.67;;
8694;SDS011;65580;49.446;6.854;2023-04-01T20:56:47;2.28;;;1.70;;
8694;SDS011;65580;49.446;6.854;2023-04-01T21:00:59;6.38;;;2.35;;
8694;SDS011;65580;49.446;6.854;2023-04-01T21:05:20;5.05;;;2.28;;
8694;SDS011;65580;49.446;6.854;2023-04-01T21:09:33;5.97;;;2.58;;
8694;SDS011;65580;49.446;6.854;2023-04-01T21:13:44;9.60;;;2.58;;
8694;SDS011;65580;49.446;6.854;2023-04-01T21:17:57;4.45;;;2.58;;
8694;SDS011;65580;49.446;6.854;2023-04-01T21:22:12;4.60;;;2.28;;
8694;SDS011;65580;49.446;6.854;2023-04-01T21:26:32;3.88;;;2.10;;
8694;SDS011;65580;49.446;6.854;2023-04-01T21:30:49;5.53;;;2.38;;
8694;SDS011;65580;49.446;6.854;2023-04-01T21:35:04;5.03;;;2.45;;
8694;SDS011;65580;49.446;6.854;2023-04-01T21:39:17;6.13;;;2.20;;
8694;SDS011;65580;49.446;6.854;2023-04-01T21:43:31;3.97;;;1.90;;
8694;SDS011;65580;49.446;6.854;2023-04-01T22:05:58;7.07;;;2.47;;
8694;SDS011;65580;49.446;6.854;2023-04-01T22:10:06;5.38;;;2.00;;
8694;SDS011;65580;49.446;6.854;2023-04-01T22:14:17;4.47;;;1.95;;
8694;SDS011;65580;49.446;6.854;2023-04-01T22:18:26;5.05;;;1.60;;
8694;SDS011;65580;49.446;6.854;2023-04-01T22:22:45;2.90;;;1.38;;
8694;SDS011;65580;49.446;6.854;2023-04-01T22:26:57;3.30;;;1.83;;
8694;SDS011;65580;49.446;6.854;2023-04-01T22:31:03;3.15;;;1.38;;
8694;SDS011;65580;49.446;6.854;2023-04-01T22:35:09;3.78;;;1.80;;
8694;SDS011;65580;49.446;6.854;2023-04-01T22:39:22;5.15;;;2.10;;
8694;SDS011;65580;49.446;6.854;2023-04-01T22:43:33;4.97;;;2.50;;
8694;SDS011;65580;49.446;6.854;2023-04-01T22:47:40;7.88;;;3.22;;
8694;SDS011;65580;49.446;6.854;2023-04-01T22:51:53;7.10;;;3.42;;
8694;SDS011;65580;49.446;6.854;2023-04-01T22:56:01;6.57;;;3.17;;
8694;SDS011;65580;49.446;6.854;2023-04-01T23:00:08;7.90;;;4.88;;
8694;SDS011;65580;49.446;6.854;2023-04-01T23:04:17;6.18;;;2.83;;
8694;SDS011;65580;49.446;6.854;2023-04-01T23:08:37;8.68;;;3.83;;
8694;SDS011;65580;49.446;6.854;2023-04-01T23:12:54;7.05;;;3.22;;
8694;SDS011;65580;49.446;6.854;2023-04-01T23:17:02;7.03;;;3.63;;
8694;SDS011;65580;49.446;6.854;2023-04-01T23:21:13;8.48;;;3.10;;
8694;SDS011;65580;49.446;6.854;2023-04-01T23:25:22;8.02;;;4.38;;
8694;SDS011;65580;49.446;6.854;2023-04-01T23:29:30;7.95;;;2.78;;
8694;SDS011;65580;49.446;6.854;2023-04-01T23:33:37;7.15;;;3.22;;
8694;SDS011;65580;49.446;6.854;2023-04-01T23:37:40;8.07;;;3.13;;
8694;SDS011;65580;49.446;6.854;2023-04-01T23:41:43;7.38;;;3.33;;
8694;SDS011;65580;49.446;6.854;2023-04-01T23:45:48;7.55;;;3.53;;
8694;SDS011;65580;49.446;6.854;2023-04-01T23:49:52;6.60;;;3.55;;
8694;SDS011;65580;49.446;6.854;2023-04-01T23:53:56;5.00;;;2.42;;
8694;SDS011;65580;49.446;6.854;2023-04-01T23:58:05;5.75;;;2.58;;
